This is the latest recevied weather packets stored in our database for station/object NC4M. If no packets are shown the sender has not sent any weather packets the latest 10 day(s).
| Time | Temp. | Humidity | Pressure | Rain* | Wind** | Luminosity | Snow |
|---|---|---|---|---|---|---|---|
| 1777404838 | 13.33° C | 90% | 1014.1 hPa | 4.32 mm | - | 10 W/m² | - |
| 1777403321 | 13.33° C | 87% | 1015.7 hPa | 0 mm | - | 13 W/m² | - |
| 1777403016 | 13.89° C | 85% | 1016.5 hPa | 1.27 mm | - | 14 W/m² | - |
| 1777396651 | 20° C | 55% | 1016.1 hPa | 0 mm | - | 945 W/m² | - |
| 1777396044 | 18.33° C | 59% | 1015.5 hPa | 0 mm | - | 895 W/m² | - |
| 1777395739 | 18.89° C | 58% | 1015.9 hPa | 0 mm | - | 513 W/m² | - |
| 1777395435 | 18.89° C | 60% | 1016.3 hPa | 0 mm | - | 1000 W/m² | - |
| 1777394830 | 17.78° C | 61% | 1016 hPa | 0 mm | - | 752 W/m² | - |
| 1777393918 | 17.78° C | 62% | 1016.3 hPa | 0 mm | - | 816 W/m² | - |
| 1777392402 | 16.67° C | 66% | 1017.3 hPa | 0 mm | - | 827 W/m² | - |
| 1777391488 | 16.11° C | 67% | 1017.5 hPa | 0 mm | - | 592 W/m² | - |
| 1777391185 | 15.56° C | 70% | 1017.7 hPa | 0 mm | - | 391 W/m² | - |
| 1777390578 | 15.56° C | 66% | 1017.8 hPa | 0 mm | - | 351 W/m² | - |
| 1777390275 | 16.11° C | 66% | 1017.7 hPa | 0 mm | - | 181 W/m² | - |
| 1777389970 | 16.11° C | 69% | 1018 hPa | 0 mm | - | 160 W/m² | - |
| 1777389668 | 16.11° C | 66% | 1017.9 hPa | 0 mm | - | 130 W/m² | - |
| 1777389363 | 16.11° C | 65% | 1017.6 hPa | 0 mm | - | 121 W/m² | - |
| 1777388155 | 15.56° C | 69% | 1018.3 hPa | 0 mm | - | 173 W/m² | - |
| 1777387549 | 15° C | 68% | 1017.9 hPa | 0 mm | - | 188 W/m² | - |
| 1777386939 | 15° C | 68% | 1017.7 hPa | 0 mm | - | 92 W/m² | - |
| 1777386333 | 15° C | 69% | 1017.6 hPa | 0 mm | - | 117 W/m² | - |
| 1777386031 | 15° C | 74% | 1017.7 hPa | 0 mm | - | 143 W/m² | - |
| 1777385728 | 14.44° C | 71% | 1017.6 hPa | 0 mm | - | 296 W/m² | - |
| 1777385425 | 13.89° C | 74% | 1017.9 hPa | 0 mm | - | 187 W/m² | - |
| 1777384817 | 13.89° C | 75% | 1017.7 hPa | 0 mm | - | 130 W/m² | - |
* Rain latest hour (hover to see other rain measurements)
** Current wind speed in m/s (hover to see current wind gust speed)